sensor_id;sensor_type;location;lat;lon;timestamp;P1;durP1;ratioP1;P2;durP2;ratioP2
15043;SDS011;7619;48.562;8.910;2023-06-22T00:01:32;4.77;;;4.00;;
15043;SDS011;7619;48.562;8.910;2023-06-22T00:04:00;7.57;;;5.17;;
15043;SDS011;7619;48.562;8.910;2023-06-22T00:06:29;6.93;;;4.77;;
15043;SDS011;7619;48.562;8.910;2023-06-22T00:08:57;5.97;;;5.23;;
15043;SDS011;7619;48.562;8.910;2023-06-22T00:11:25;5.07;;;4.33;;
15043;SDS011;7619;48.562;8.910;2023-06-22T00:13:54;10.40;;;4.97;;
15043;SDS011;7619;48.562;8.910;2023-06-22T00:16:25;5.87;;;4.63;;
15043;SDS011;7619;48.562;8.910;2023-06-22T00:18:53;7.00;;;4.57;;
15043;SDS011;7619;48.562;8.910;2023-06-22T00:21:21;7.57;;;4.93;;
15043;SDS011;7619;48.562;8.910;2023-06-22T00:23:50;5.60;;;4.47;;
15043;SDS011;7619;48.562;8.910;2023-06-22T00:26:18;6.97;;;4.23;;
15043;SDS011;7619;48.562;8.910;2023-06-22T00:28:47;5.13;;;4.63;;
15043;SDS011;7619;48.562;8.910;2023-06-22T00:31:15;4.73;;;3.90;;
15043;SDS011;7619;48.562;8.910;2023-06-22T00:33:43;6.83;;;5.00;;
15043;SDS011;7619;48.562;8.910;2023-06-22T00:36:11;5.17;;;4.37;;
15043;SDS011;7619;48.562;8.910;2023-06-22T00:38:41;6.43;;;4.47;;
15043;SDS011;7619;48.562;8.910;2023-06-22T00:41:10;7.13;;;5.57;;
15043;SDS011;7619;48.562;8.910;2023-06-22T00:43:38;7.67;;;4.90;;
15043;SDS011;7619;48.562;8.910;2023-06-22T00:46:07;5.63;;;4.90;;
15043;SDS011;7619;48.562;8.910;2023-06-22T00:48:36;5.57;;;4.30;;
15043;SDS011;7619;48.562;8.910;2023-06-22T00:51:04;4.50;;;3.90;;
15043;SDS011;7619;48.562;8.910;2023-06-22T00:53:33;6.10;;;4.43;;
15043;SDS011;7619;48.562;8.910;2023-06-22T00:56:04;6.10;;;5.00;;
15043;SDS011;7619;48.562;8.910;2023-06-22T00:58:35;7.43;;;5.43;;
15043;SDS011;7619;48.562;8.910;2023-06-22T01:01:03;6.63;;;5.93;;
15043;SDS011;7619;48.562;8.910;2023-06-22T01:03:31;6.60;;;4.80;;
15043;SDS011;7619;48.562;8.910;2023-06-22T01:06:02;6.70;;;5.37;;
15043;SDS011;7619;48.562;8.910;2023-06-22T01:08:31;9.23;;;5.90;;
15043;SDS011;7619;48.562;8.910;2023-06-22T01:11:00;5.67;;;4.30;;
15043;SDS011;7619;48.562;8.910;2023-06-22T01:13:32;5.77;;;4.97;;
15043;SDS011;7619;48.562;8.910;2023-06-22T01:16:01;7.17;;;5.63;;
15043;SDS011;7619;48.562;8.910;2023-06-22T01:18:30;8.30;;;5.70;;
15043;SDS011;7619;48.562;8.910;2023-06-22T01:20:59;5.67;;;5.17;;
15043;SDS011;7619;48.562;8.910;2023-06-22T01:23:35;5.03;;;4.53;;
15043;SDS011;7619;48.562;8.910;2023-06-22T01:26:02;6.53;;;4.83;;
15043;SDS011;7619;48.562;8.910;2023-06-22T01:28:46;5.33;;;4.57;;
15043;SDS011;7619;48.562;8.910;2023-06-22T01:31:15;5.47;;;4.77;;
15043;SDS011;7619;48.562;8.910;2023-06-22T01:33:44;6.13;;;4.70;;
15043;SDS011;7619;48.562;8.910;2023-06-22T01:36:13;5.87;;;5.13;;
15043;SDS011;7619;48.562;8.910;2023-06-22T01:38:42;7.23;;;5.30;;
15043;SDS011;7619;48.562;8.910;2023-06-22T01:41:11;7.63;;;4.93;;
15043;SDS011;7619;48.562;8.910;2023-06-22T01:43:39;5.73;;;4.50;;
15043;SDS011;7619;48.562;8.910;2023-06-22T01:46:08;5.87;;;4.97;;
15043;SDS011;7619;48.562;8.910;2023-06-22T01:48:36;5.87;;;4.53;;
15043;SDS011;7619;48.562;8.910;2023-06-22T01:51:05;6.13;;;5.53;;
15043;SDS011;7619;48.562;8.910;2023-06-22T01:53:33;6.30;;;5.00;;
15043;SDS011;7619;48.562;8.910;2023-06-22T01:56:01;7.67;;;5.07;;
15043;SDS011;7619;48.562;8.910;2023-06-22T01:58:30;5.90;;;4.83;;
15043;SDS011;7619;48.562;8.910;2023-06-22T02:01:00;7.13;;;5.30;;
15043;SDS011;7619;48.562;8.910;2023-06-22T02:03:31;7.17;;;5.60;;
15043;SDS011;7619;48.562;8.910;2023-06-22T02:06:03;6.17;;;5.30;;
15043;SDS011;7619;48.562;8.910;2023-06-22T02:08:33;7.10;;;5.77;;
15043;SDS011;7619;48.562;8.910;2023-06-22T02:11:01;5.87;;;5.27;;
15043;SDS011;7619;48.562;8.910;2023-06-22T02:13:30;6.93;;;5.03;;
15043;SDS011;7619;48.562;8.910;2023-06-22T02:15:58;6.57;;;5.40;;
15043;SDS011;7619;48.562;8.910;2023-06-22T02:18:27;7.53;;;6.03;;
15043;SDS011;7619;48.562;8.910;2023-06-22T02:20:55;6.03;;;5.27;;
15043;SDS011;7619;48.562;8.910;2023-06-22T02:23:24;7.93;;;6.27;;
15043;SDS011;7619;48.562;8.910;2023-06-22T02:25:52;6.60;;;5.07;;
15043;SDS011;7619;48.562;8.910;2023-06-22T02:28:20;9.77;;;5.80;;
15043;SDS011;7619;48.562;8.910;2023-06-22T02:30:48;6.70;;;5.13;;
15043;SDS011;7619;48.562;8.910;2023-06-22T02:33:16;6.80;;;5.90;;
15043;SDS011;7619;48.562;8.910;2023-06-22T02:35:45;5.67;;;5.07;;
15043;SDS011;7619;48.562;8.910;2023-06-22T02:38:14;11.17;;;5.27;;
15043;SDS011;7619;48.562;8.910;2023-06-22T02:40:44;7.43;;;5.93;;
15043;SDS011;7619;48.562;8.910;2023-06-22T02:43:12;6.10;;;5.23;;
15043;SDS011;7619;48.562;8.910;2023-06-22T02:45:40;6.97;;;4.53;;
15043;SDS011;7619;48.562;8.910;2023-06-22T02:48:08;8.63;;;5.67;;
15043;SDS011;7619;48.562;8.910;2023-06-22T02:50:38;7.83;;;5.23;;
15043;SDS011;7619;48.562;8.910;2023-06-22T02:53:06;6.27;;;4.93;;
15043;SDS011;7619;48.562;8.910;2023-06-22T02:55:35;7.07;;;5.87;;
15043;SDS011;7619;48.562;8.910;2023-06-22T02:58:03;8.33;;;5.83;;
15043;SDS011;7619;48.562;8.910;2023-06-22T03:00:31;8.83;;;6.03;;
15043;SDS011;7619;48.562;8.910;2023-06-22T03:02:59;7.17;;;5.50;;
15043;SDS011;7619;48.562;8.910;2023-06-22T03:05:27;7.00;;;5.50;;
15043;SDS011;7619;48.562;8.910;2023-06-22T03:07:56;7.13;;;5.43;;
15043;SDS011;7619;48.562;8.910;2023-06-22T03:10:24;7.30;;;5.63;;
15043;SDS011;7619;48.562;8.910;2023-06-22T03:12:52;6.53;;;5.40;;
15043;SDS011;7619;48.562;8.910;2023-06-22T03:15:20;6.03;;;5.17;;
15043;SDS011;7619;48.562;8.910;2023-06-22T03:17:49;7.73;;;5.40;;
15043;SDS011;7619;48.562;8.910;2023-06-22T03:20:17;9.07;;;5.57;;
15043;SDS011;7619;48.562;8.910;2023-06-22T03:22:46;8.17;;;5.40;;
15043;SDS011;7619;48.562;8.910;2023-06-22T03:25:15;9.47;;;5.07;;
15043;SDS011;7619;48.562;8.910;2023-06-22T03:27:43;7.13;;;4.93;;
15043;SDS011;7619;48.562;8.910;2023-06-22T03:30:12;8.13;;;5.60;;
15043;SDS011;7619;48.562;8.910;2023-06-22T03:32:40;9.67;;;6.40;;
15043;SDS011;7619;48.562;8.910;2023-06-22T03:35:09;6.83;;;5.43;;
15043;SDS011;7619;48.562;8.910;2023-06-22T03:37:39;8.67;;;6.40;;
15043;SDS011;7619;48.562;8.910;2023-06-22T03:40:08;6.17;;;5.57;;
15043;SDS011;7619;48.562;8.910;2023-06-22T03:42:37;5.53;;;5.03;;
15043;SDS011;7619;48.562;8.910;2023-06-22T03:45:07;8.40;;;5.67;;
15043;SDS011;7619;48.562;8.910;2023-06-22T03:47:35;11.93;;;6.47;;
15043;SDS011;7619;48.562;8.910;2023-06-22T03:50:03;9.57;;;6.03;;
15043;SDS011;7619;48.562;8.910;2023-06-22T03:52:32;14.07;;;6.40;;
15043;SDS011;7619;48.562;8.910;2023-06-22T03:55:01;9.33;;;5.73;;
15043;SDS011;7619;48.562;8.910;2023-06-22T03:57:29;8.07;;;5.60;;
15043;SDS011;7619;48.562;8.910;2023-06-22T03:59:57;6.83;;;5.70;;
15043;SDS011;7619;48.562;8.910;2023-06-22T04:02:25;9.17;;;5.63;;
15043;SDS011;7619;48.562;8.910;2023-06-22T04:04:54;7.77;;;5.87;;
15043;SDS011;7619;48.562;8.910;2023-06-22T04:07:22;10.67;;;5.63;;
15043;SDS011;7619;48.562;8.910;2023-06-22T04:09:51;7.07;;;5.60;;
15043;SDS011;7619;48.562;8.910;2023-06-22T04:12:19;8.00;;;5.53;;
15043;SDS011;7619;48.562;8.910;2023-06-22T04:14:48;10.70;;;5.40;;
15043;SDS011;7619;48.562;8.910;2023-06-22T04:17:16;6.47;;;4.87;;
15043;SDS011;7619;48.562;8.910;2023-06-22T04:19:44;8.17;;;5.00;;
15043;SDS011;7619;48.562;8.910;2023-06-22T04:22:12;11.23;;;6.20;;
15043;SDS011;7619;48.562;8.910;2023-06-22T04:24:40;6.80;;;4.90;;
15043;SDS011;7619;48.562;8.910;2023-06-22T04:27:09;12.50;;;5.43;;
15043;SDS011;7619;48.562;8.910;2023-06-22T04:29:37;6.33;;;4.77;;
15043;SDS011;7619;48.562;8.910;2023-06-22T04:32:07;6.47;;;4.80;;
15043;SDS011;7619;48.562;8.910;2023-06-22T04:34:35;5.90;;;5.30;;
15043;SDS011;7619;48.562;8.910;2023-06-22T04:37:05;6.70;;;5.20;;
15043;SDS011;7619;48.562;8.910;2023-06-22T04:39:33;6.03;;;4.80;;
15043;SDS011;7619;48.562;8.910;2023-06-22T04:42:01;5.63;;;5.03;;
15043;SDS011;7619;48.562;8.910;2023-06-22T04:44:29;7.33;;;4.80;;
15043;SDS011;7619;48.562;8.910;2023-06-22T04:46:57;5.93;;;4.67;;
15043;SDS011;7619;48.562;8.910;2023-06-22T04:49:29;6.43;;;4.67;;
15043;SDS011;7619;48.562;8.910;2023-06-22T04:52:00;6.13;;;4.23;;
15043;SDS011;7619;48.562;8.910;2023-06-22T04:54:28;5.13;;;4.27;;
15043;SDS011;7619;48.562;8.910;2023-06-22T04:56:56;9.00;;;4.50;;
15043;SDS011;7619;48.562;8.910;2023-06-22T04:59:24;6.93;;;4.80;;
15043;SDS011;7619;48.562;8.910;2023-06-22T05:01:54;6.03;;;5.30;;
15043;SDS011;7619;48.562;8.910;2023-06-22T05:04:22;6.07;;;4.73;;
15043;SDS011;7619;48.562;8.910;2023-06-22T05:06:52;8.97;;;4.83;;
15043;SDS011;7619;48.562;8.910;2023-06-22T05:09:20;6.63;;;4.73;;
15043;SDS011;7619;48.562;8.910;2023-06-22T05:11:48;4.93;;;4.53;;
15043;SDS011;7619;48.562;8.910;2023-06-22T05:14:17;7.30;;;4.70;;
15043;SDS011;7619;48.562;8.910;2023-06-22T05:16:45;4.93;;;4.33;;
15043;SDS011;7619;48.562;8.910;2023-06-22T05:19:13;4.10;;;3.70;;
15043;SDS011;7619;48.562;8.910;2023-06-22T05:21:41;6.77;;;3.97;;
15043;SDS011;7619;48.562;8.910;2023-06-22T05:24:09;5.67;;;4.20;;
15043;SDS011;7619;48.562;8.910;2023-06-22T05:26:37;4.47;;;3.73;;
15043;SDS011;7619;48.562;8.910;2023-06-22T05:29:05;4.13;;;3.23;;
15043;SDS011;7619;48.562;8.910;2023-06-22T05:31:34;3.73;;;3.33;;
15043;SDS011;7619;48.562;8.910;2023-06-22T05:34:02;5.40;;;3.30;;
15043;SDS011;7619;48.562;8.910;2023-06-22T05:36:30;4.87;;;3.77;;
15043;SDS011;7619;48.562;8.910;2023-06-22T05:38:58;5.07;;;3.37;;
15043;SDS011;7619;48.562;8.910;2023-06-22T05:44:03;6.60;;;3.70;;
15043;SDS011;7619;48.562;8.910;2023-06-22T05:46:31;5.27;;;3.53;;
15043;SDS011;7619;48.562;8.910;2023-06-22T05:48:59;4.60;;;3.27;;
15043;SDS011;7619;48.562;8.910;2023-06-22T05:51:27;3.87;;;3.00;;
15043;SDS011;7619;48.562;8.910;2023-06-22T05:53:55;3.80;;;3.30;;
15043;SDS011;7619;48.562;8.910;2023-06-22T05:56:24;3.73;;;2.83;;
15043;SDS011;7619;48.562;8.910;2023-06-22T05:58:52;3.60;;;3.03;;
15043;SDS011;7619;48.562;8.910;2023-06-22T06:01:20;5.70;;;3.17;;
15043;SDS011;7619;48.562;8.910;2023-06-22T06:03:48;4.13;;;3.30;;
15043;SDS011;7619;48.562;8.910;2023-06-22T06:06:16;5.80;;;2.93;;
15043;SDS011;7619;48.562;8.910;2023-06-22T06:08:44;3.00;;;2.70;;
15043;SDS011;7619;48.562;8.910;2023-06-22T06:11:12;4.90;;;2.47;;
15043;SDS011;7619;48.562;8.910;2023-06-22T06:13:40;3.43;;;2.90;;
15043;SDS011;7619;48.562;8.910;2023-06-22T06:16:09;3.73;;;2.53;;
15043;SDS011;7619;48.562;8.910;2023-06-22T06:18:37;2.30;;;2.10;;
15043;SDS011;7619;48.562;8.910;2023-06-22T06:21:05;3.07;;;2.53;;
15043;SDS011;7619;48.562;8.910;2023-06-22T06:23:33;3.67;;;2.90;;
15043;SDS011;7619;48.562;8.910;2023-06-22T06:26:01;3.83;;;2.90;;
15043;SDS011;7619;48.562;8.910;2023-06-22T06:28:30;4.40;;;2.83;;
15043;SDS011;7619;48.562;8.910;2023-06-22T06:30:58;3.13;;;2.60;;
15043;SDS011;7619;48.562;8.910;2023-06-22T06:33:27;2.77;;;2.40;;
15043;SDS011;7619;48.562;8.910;2023-06-22T06:35:55;3.17;;;2.80;;
15043;SDS011;7619;48.562;8.910;2023-06-22T06:38:23;3.87;;;2.30;;
15043;SDS011;7619;48.562;8.910;2023-06-22T06:40:51;4.80;;;2.30;;
15043;SDS011;7619;48.562;8.910;2023-06-22T06:43:19;3.37;;;2.63;;
15043;SDS011;7619;48.562;8.910;2023-06-22T06:45:47;3.03;;;2.50;;
15043;SDS011;7619;48.562;8.910;2023-06-22T06:48:15;3.37;;;2.13;;
15043;SDS011;7619;48.562;8.910;2023-06-22T06:50:44;2.70;;;2.43;;
15043;SDS011;7619;48.562;8.910;2023-06-22T06:53:12;4.43;;;2.60;;
15043;SDS011;7619;48.562;8.910;2023-06-22T06:55:40;2.60;;;2.27;;
15043;SDS011;7619;48.562;8.910;2023-06-22T06:58:08;2.50;;;2.30;;
15043;SDS011;7619;48.562;8.910;2023-06-22T07:00:37;4.13;;;2.67;;
15043;SDS011;7619;48.562;8.910;2023-06-22T07:03:05;3.20;;;2.13;;
15043;SDS011;7619;48.562;8.910;2023-06-22T07:05:34;2.87;;;2.57;;
15043;SDS011;7619;48.562;8.910;2023-06-22T07:08:02;2.27;;;2.07;;
15043;SDS011;7619;48.562;8.910;2023-06-22T07:10:30;4.17;;;2.10;;
15043;SDS011;7619;48.562;8.910;2023-06-22T07:12:58;5.47;;;3.07;;
15043;SDS011;7619;48.562;8.910;2023-06-22T07:15:26;3.27;;;2.70;;
15043;SDS011;7619;48.562;8.910;2023-06-22T07:17:55;3.03;;;2.50;;
15043;SDS011;7619;48.562;8.910;2023-06-22T07:20:23;3.30;;;2.50;;
15043;SDS011;7619;48.562;8.910;2023-06-22T07:22:51;3.70;;;2.30;;
15043;SDS011;7619;48.562;8.910;2023-06-22T07:25:19;3.77;;;3.00;;
15043;SDS011;7619;48.562;8.910;2023-06-22T07:27:57;3.20;;;2.30;;
15043;SDS011;7619;48.562;8.910;2023-06-22T07:30:25;3.47;;;2.57;;
15043;SDS011;7619;48.562;8.910;2023-06-22T07:32:53;2.53;;;2.33;;
15043;SDS011;7619;48.562;8.910;2023-06-22T07:35:22;4.20;;;2.40;;
15043;SDS011;7619;48.562;8.910;2023-06-22T07:40:26;3.37;;;2.23;;
15043;SDS011;7619;48.562;8.910;2023-06-22T07:42:54;3.93;;;2.67;;
15043;SDS011;7619;48.562;8.910;2023-06-22T07:45:22;4.27;;;2.40;;
15043;SDS011;7619;48.562;8.910;2023-06-22T07:47:51;3.43;;;2.80;;
15043;SDS011;7619;48.562;8.910;2023-06-22T07:50:19;2.60;;;2.30;;
15043;SDS011;7619;48.562;8.910;2023-06-22T07:55:23;2.97;;;2.60;;
15043;SDS011;7619;48.562;8.910;2023-06-22T07:57:51;4.27;;;2.90;;
15043;SDS011;7619;48.562;8.910;2023-06-22T08:00:20;2.87;;;2.43;;
15043;SDS011;7619;48.562;8.910;2023-06-22T08:02:48;3.13;;;2.63;;
15043;SDS011;7619;48.562;8.910;2023-06-22T08:05:16;5.30;;;3.03;;
15043;SDS011;7619;48.562;8.910;2023-06-22T08:07:44;3.47;;;2.50;;
15043;SDS011;7619;48.562;8.910;2023-06-22T08:10:12;4.07;;;2.67;;
15043;SDS011;7619;48.562;8.910;2023-06-22T08:12:40;3.43;;;3.13;;
15043;SDS011;7619;48.562;8.910;2023-06-22T08:15:09;3.40;;;2.93;;
15043;SDS011;7619;48.562;8.910;2023-06-22T08:17:37;5.00;;;2.47;;
15043;SDS011;7619;48.562;8.910;2023-06-22T08:20:06;4.60;;;2.97;;
15043;SDS011;7619;48.562;8.910;2023-06-22T08:22:37;3.40;;;2.57;;
15043;SDS011;7619;48.562;8.910;2023-06-22T08:25:06;3.40;;;2.77;;
15043;SDS011;7619;48.562;8.910;2023-06-22T08:27:35;3.33;;;2.73;;
15043;SDS011;7619;48.562;8.910;2023-06-22T08:30:04;3.97;;;2.80;;
15043;SDS011;7619;48.562;8.910;2023-06-22T08:32:33;5.10;;;2.50;;
15043;SDS011;7619;48.562;8.910;2023-06-22T08:35:01;4.17;;;2.97;;
15043;SDS011;7619;48.562;8.910;2023-06-22T08:37:29;4.20;;;2.97;;
15043;SDS011;7619;48.562;8.910;2023-06-22T08:39:58;4.50;;;2.93;;
15043;SDS011;7619;48.562;8.910;2023-06-22T08:45:03;4.00;;;2.63;;
15043;SDS011;7619;48.562;8.910;2023-06-22T08:47:31;4.20;;;2.87;;
15043;SDS011;7619;48.562;8.910;2023-06-22T08:49:59;4.57;;;2.90;;
15043;SDS011;7619;48.562;8.910;2023-06-22T08:52:29;6.43;;;3.23;;
15043;SDS011;7619;48.562;8.910;2023-06-22T08:54:57;4.90;;;2.40;;
15043;SDS011;7619;48.562;8.910;2023-06-22T08:57:25;4.07;;;3.20;;
15043;SDS011;7619;48.562;8.910;2023-06-22T09:02:30;5.70;;;2.70;;
15043;SDS011;7619;48.562;8.910;2023-06-22T09:04:58;5.57;;;2.80;;
15043;SDS011;7619;48.562;8.910;2023-06-22T09:07:26;8.47;;;3.20;;
15043;SDS011;7619;48.562;8.910;2023-06-22T09:09:56;5.00;;;3.40;;
15043;SDS011;7619;48.562;8.910;2023-06-22T09:12:24;3.83;;;2.83;;
15043;SDS011;7619;48.562;8.910;2023-06-22T09:14:54;3.40;;;2.80;;
15043;SDS011;7619;48.562;8.910;2023-06-22T09:17:22;3.20;;;2.83;;
15043;SDS011;7619;48.562;8.910;2023-06-22T09:19:50;4.67;;;2.90;;
15043;SDS011;7619;48.562;8.910;2023-06-22T09:22:18;5.30;;;2.97;;
15043;SDS011;7619;48.562;8.910;2023-06-22T09:24:46;5.70;;;3.37;;
15043;SDS011;7619;48.562;8.910;2023-06-22T09:27:14;4.10;;;2.90;;
15043;SDS011;7619;48.562;8.910;2023-06-22T09:29:42;4.47;;;2.80;;
15043;SDS011;7619;48.562;8.910;2023-06-22T09:32:10;4.60;;;3.53;;
15043;SDS011;7619;48.562;8.910;2023-06-22T09:34:38;4.87;;;2.90;;
15043;SDS011;7619;48.562;8.910;2023-06-22T09:37:06;4.63;;;2.93;;
15043;SDS011;7619;48.562;8.910;2023-06-22T09:39:34;5.63;;;3.13;;
15043;SDS011;7619;48.562;8.910;2023-06-22T09:42:04;4.50;;;3.10;;
15043;SDS011;7619;48.562;8.910;2023-06-22T09:44:33;4.63;;;3.23;;
15043;SDS011;7619;48.562;8.910;2023-06-22T09:47:01;3.67;;;2.73;;
15043;SDS011;7619;48.562;8.910;2023-06-22T09:49:29;5.50;;;2.93;;
15043;SDS011;7619;48.562;8.910;2023-06-22T09:51:57;3.83;;;2.90;;
15043;SDS011;7619;48.562;8.910;2023-06-22T09:54:25;3.23;;;2.63;;
15043;SDS011;7619;48.562;8.910;2023-06-22T09:56:53;6.10;;;2.60;;
15043;SDS011;7619;48.562;8.910;2023-06-22T09:59:21;2.93;;;2.63;;
15043;SDS011;7619;48.562;8.910;2023-06-22T10:01:49;3.50;;;3.00;;
15043;SDS011;7619;48.562;8.910;2023-06-22T10:04:17;4.13;;;3.00;;
15043;SDS011;7619;48.562;8.910;2023-06-22T10:06:45;4.57;;;2.90;;
15043;SDS011;7619;48.562;8.910;2023-06-22T10:09:14;3.30;;;2.90;;
15043;SDS011;7619;48.562;8.910;2023-06-22T10:11:42;4.33;;;2.83;;
15043;SDS011;7619;48.562;8.910;2023-06-22T10:14:10;5.03;;;3.27;;
15043;SDS011;7619;48.562;8.910;2023-06-22T10:16:38;3.73;;;2.90;;
15043;SDS011;7619;48.562;8.910;2023-06-22T10:19:07;5.73;;;3.03;;
15043;SDS011;7619;48.562;8.910;2023-06-22T10:21:36;6.70;;;3.10;;
15043;SDS011;7619;48.562;8.910;2023-06-22T10:24:04;3.47;;;2.90;;
15043;SDS011;7619;48.562;8.910;2023-06-22T10:26:33;5.67;;;2.50;;
15043;SDS011;7619;48.562;8.910;2023-06-22T10:29:01;7.13;;;2.80;;
15043;SDS011;7619;48.562;8.910;2023-06-22T10:31:29;7.50;;;2.97;;
15043;SDS011;7619;48.562;8.910;2023-06-22T10:33:57;5.20;;;2.90;;
15043;SDS011;7619;48.562;8.910;2023-06-22T10:36:26;3.57;;;2.80;;
15043;SDS011;7619;48.562;8.910;2023-06-22T10:38:54;2.87;;;2.57;;
15043;SDS011;7619;48.562;8.910;2023-06-22T10:41:22;5.40;;;2.70;;
15043;SDS011;7619;48.562;8.910;2023-06-22T10:43:50;3.47;;;2.57;;
15043;SDS011;7619;48.562;8.910;2023-06-22T10:46:18;2.50;;;2.30;;
15043;SDS011;7619;48.562;8.910;2023-06-22T10:48:46;4.83;;;3.13;;
15043;SDS011;7619;48.562;8.910;2023-06-22T10:51:14;3.43;;;3.00;;
15043;SDS011;7619;48.562;8.910;2023-06-22T10:53:42;4.23;;;2.47;;
15043;SDS011;7619;48.562;8.910;2023-06-22T10:56:10;6.17;;;2.83;;
15043;SDS011;7619;48.562;8.910;2023-06-22T10:58:38;6.43;;;3.07;;
15043;SDS011;7619;48.562;8.910;2023-06-22T11:01:06;3.50;;;2.97;;
15043;SDS011;7619;48.562;8.910;2023-06-22T11:03:34;5.13;;;2.67;;
15043;SDS011;7619;48.562;8.910;2023-06-22T11:06:03;6.83;;;3.57;;
15043;SDS011;7619;48.562;8.910;2023-06-22T11:08:31;3.37;;;2.47;;
15043;SDS011;7619;48.562;8.910;2023-06-22T11:10:59;4.60;;;2.77;;
15043;SDS011;7619;48.562;8.910;2023-06-22T11:13:27;4.80;;;2.67;;
15043;SDS011;7619;48.562;8.910;2023-06-22T11:15:55;3.97;;;2.60;;
15043;SDS011;7619;48.562;8.910;2023-06-22T11:18:23;3.77;;;2.60;;
15043;SDS011;7619;48.562;8.910;2023-06-22T11:20:51;3.30;;;2.97;;
15043;SDS011;7619;48.562;8.910;2023-06-22T11:23:19;4.97;;;2.63;;
15043;SDS011;7619;48.562;8.910;2023-06-22T11:25:47;4.47;;;2.93;;
15043;SDS011;7619;48.562;8.910;2023-06-22T11:28:16;3.70;;;2.37;;
15043;SDS011;7619;48.562;8.910;2023-06-22T11:30:44;4.63;;;3.47;;
15043;SDS011;7619;48.562;8.910;2023-06-22T11:33:12;4.50;;;2.57;;
15043;SDS011;7619;48.562;8.910;2023-06-22T11:35:40;3.73;;;2.83;;
15043;SDS011;7619;48.562;8.910;2023-06-22T11:38:08;5.40;;;2.87;;
15043;SDS011;7619;48.562;8.910;2023-06-22T11:40:36;2.90;;;2.57;;
15043;SDS011;7619;48.562;8.910;2023-06-22T11:43:04;4.00;;;2.40;;
15043;SDS011;7619;48.562;8.910;2023-06-22T11:45:32;4.53;;;3.10;;
15043;SDS011;7619;48.562;8.910;2023-06-22T11:48:00;4.43;;;2.53;;
15043;SDS011;7619;48.562;8.910;2023-06-22T11:50:28;4.53;;;2.50;;
15043;SDS011;7619;48.562;8.910;2023-06-22T11:52:58;5.07;;;2.83;;
15043;SDS011;7619;48.562;8.910;2023-06-22T11:55:26;4.63;;;3.20;;
15043;SDS011;7619;48.562;8.910;2023-06-22T11:57:55;4.60;;;2.83;;
15043;SDS011;7619;48.562;8.910;2023-06-22T12:00:25;3.77;;;2.63;;
15043;SDS011;7619;48.562;8.910;2023-06-22T12:02:53;3.70;;;2.50;;
15043;SDS011;7619;48.562;8.910;2023-06-22T12:05:21;4.23;;;2.63;;
15043;SDS011;7619;48.562;8.910;2023-06-22T12:07:52;4.07;;;3.23;;
15043;SDS011;7619;48.562;8.910;2023-06-22T12:10:20;5.60;;;2.97;;
15043;SDS011;7619;48.562;8.910;2023-06-22T12:12:49;4.90;;;2.80;;
15043;SDS011;7619;48.562;8.910;2023-06-22T12:15:17;4.10;;;2.40;;
15043;SDS011;7619;48.562;8.910;2023-06-22T12:17:45;4.60;;;3.10;;
15043;SDS011;7619;48.562;8.910;2023-06-22T12:25:27;3.63;;;3.23;;
15043;SDS011;7619;48.562;8.910;2023-06-22T12:27:55;3.97;;;2.97;;
15043;SDS011;7619;48.562;8.910;2023-06-22T12:30:24;4.60;;;2.57;;
15043;SDS011;7619;48.562;8.910;2023-06-22T12:32:52;3.53;;;3.00;;
15043;SDS011;7619;48.562;8.910;2023-06-22T12:35:20;4.10;;;3.63;;
15043;SDS011;7619;48.562;8.910;2023-06-22T12:37:48;4.43;;;3.07;;
15043;SDS011;7619;48.562;8.910;2023-06-22T12:40:16;3.53;;;2.90;;
15043;SDS011;7619;48.562;8.910;2023-06-22T12:42:45;6.10;;;2.87;;
15043;SDS011;7619;48.562;8.910;2023-06-22T12:45:13;7.07;;;3.10;;
15043;SDS011;7619;48.562;8.910;2023-06-22T12:47:41;4.87;;;2.50;;
15043;SDS011;7619;48.562;8.910;2023-06-22T12:50:10;3.43;;;3.13;;
15043;SDS011;7619;48.562;8.910;2023-06-22T12:52:39;2.87;;;2.40;;
15043;SDS011;7619;48.562;8.910;2023-06-22T12:55:08;3.67;;;2.67;;
15043;SDS011;7619;48.562;8.910;2023-06-22T12:57:36;3.37;;;2.97;;
15043;SDS011;7619;48.562;8.910;2023-06-22T13:00:06;4.37;;;3.17;;
15043;SDS011;7619;48.562;8.910;2023-06-22T13:02:37;5.13;;;3.00;;
15043;SDS011;7619;48.562;8.910;2023-06-22T13:05:05;3.60;;;2.90;;
15043;SDS011;7619;48.562;8.910;2023-06-22T13:07:34;4.17;;;2.53;;
15043;SDS011;7619;48.562;8.910;2023-06-22T13:10:02;5.10;;;3.33;;
15043;SDS011;7619;48.562;8.910;2023-06-22T13:12:30;6.30;;;3.00;;
15043;SDS011;7619;48.562;8.910;2023-06-22T13:14:58;4.07;;;2.83;;
15043;SDS011;7619;48.562;8.910;2023-06-22T13:17:26;4.97;;;2.90;;
15043;SDS011;7619;48.562;8.910;2023-06-22T13:19:54;6.90;;;3.17;;
15043;SDS011;7619;48.562;8.910;2023-06-22T13:22:26;4.50;;;2.80;;
15043;SDS011;7619;48.562;8.910;2023-06-22T13:24:55;4.27;;;3.37;;
15043;SDS011;7619;48.562;8.910;2023-06-22T13:27:23;3.90;;;3.10;;
15043;SDS011;7619;48.562;8.910;2023-06-22T13:29:52;5.53;;;3.10;;
15043;SDS011;7619;48.562;8.910;2023-06-22T13:32:20;5.10;;;3.17;;
15043;SDS011;7619;48.562;8.910;2023-06-22T13:34:48;5.17;;;3.17;;
15043;SDS011;7619;48.562;8.910;2023-06-22T13:37:16;5.33;;;2.70;;
15043;SDS011;7619;48.562;8.910;2023-06-22T13:39:44;6.23;;;3.17;;
15043;SDS011;7619;48.562;8.910;2023-06-22T13:42:12;8.00;;;3.23;;
15043;SDS011;7619;48.562;8.910;2023-06-22T13:44:40;4.80;;;3.17;;
15043;SDS011;7619;48.562;8.910;2023-06-22T13:47:08;3.70;;;2.93;;
15043;SDS011;7619;48.562;8.910;2023-06-22T13:49:36;4.23;;;3.20;;
15043;SDS011;7619;48.562;8.910;2023-06-22T13:52:05;5.37;;;3.30;;
15043;SDS011;7619;48.562;8.910;2023-06-22T13:54:35;5.40;;;3.20;;
15043;SDS011;7619;48.562;8.910;2023-06-22T13:57:03;5.33;;;3.17;;
15043;SDS011;7619;48.562;8.910;2023-06-22T13:59:31;5.77;;;2.83;;
15043;SDS011;7619;48.562;8.910;2023-06-22T14:01:59;3.80;;;3.30;;
15043;SDS011;7619;48.562;8.910;2023-06-22T14:04:27;4.27;;;3.20;;
15043;SDS011;7619;48.562;8.910;2023-06-22T14:06:56;5.20;;;3.13;;
15043;SDS011;7619;48.562;8.910;2023-06-22T14:09:24;5.27;;;2.87;;
15043;SDS011;7619;48.562;8.910;2023-06-22T14:11:53;4.27;;;3.00;;
15043;SDS011;7619;48.562;8.910;2023-06-22T14:14:21;5.10;;;3.07;;
15043;SDS011;7619;48.562;8.910;2023-06-22T14:16:49;5.27;;;3.03;;
15043;SDS011;7619;48.562;8.910;2023-06-22T14:19:17;4.40;;;2.00;;
15043;SDS011;7619;48.562;8.910;2023-06-22T14:21:45;3.40;;;2.00;;
15043;SDS011;7619;48.562;8.910;2023-06-22T14:24:13;2.33;;;1.60;;
15043;SDS011;7619;48.562;8.910;2023-06-22T14:26:41;2.87;;;1.80;;
15043;SDS011;7619;48.562;8.910;2023-06-22T14:29:09;6.17;;;2.07;;
15043;SDS011;7619;48.562;8.910;2023-06-22T14:31:37;3.00;;;1.70;;
15043;SDS011;7619;48.562;8.910;2023-06-22T14:34:06;2.70;;;1.63;;
15043;SDS011;7619;48.562;8.910;2023-06-22T14:36:34;3.47;;;1.97;;
15043;SDS011;7619;48.562;8.910;2023-06-22T14:39:02;5.63;;;1.83;;
15043;SDS011;7619;48.562;8.910;2023-06-22T14:41:30;8.53;;;1.93;;
15043;SDS011;7619;48.562;8.910;2023-06-22T14:43:58;6.83;;;2.13;;
15043;SDS011;7619;48.562;8.910;2023-06-22T14:46:27;2.70;;;1.60;;
15043;SDS011;7619;48.562;8.910;2023-06-22T14:48:55;6.40;;;1.90;;
15043;SDS011;7619;48.562;8.910;2023-06-22T14:51:23;4.10;;;2.53;;
15043;SDS011;7619;48.562;8.910;2023-06-22T14:53:51;4.53;;;1.77;;
15043;SDS011;7619;48.562;8.910;2023-06-22T14:56:19;3.37;;;1.87;;
15043;SDS011;7619;48.562;8.910;2023-06-22T14:58:47;5.50;;;2.80;;
15043;SDS011;7619;48.562;8.910;2023-06-22T15:01:16;2.70;;;1.77;;
15043;SDS011;7619;48.562;8.910;2023-06-22T15:03:44;6.83;;;1.77;;
15043;SDS011;7619;48.562;8.910;2023-06-22T15:06:13;3.37;;;1.20;;
15043;SDS011;7619;48.562;8.910;2023-06-22T15:08:41;1.63;;;1.30;;
15043;SDS011;7619;48.562;8.910;2023-06-22T15:11:09;2.13;;;1.47;;
15043;SDS011;7619;48.562;8.910;2023-06-22T15:13:39;3.30;;;1.40;;
15043;SDS011;7619;48.562;8.910;2023-06-22T15:16:07;4.83;;;2.27;;
15043;SDS011;7619;48.562;8.910;2023-06-22T15:18:36;3.80;;;1.87;;
15043;SDS011;7619;48.562;8.910;2023-06-22T15:21:04;4.53;;;1.87;;
15043;SDS011;7619;48.562;8.910;2023-06-22T15:23:32;3.50;;;2.00;;
15043;SDS011;7619;48.562;8.910;2023-06-22T15:26:02;10.53;;;2.10;;